Time;durP1;ratioP1;P1;durP2;ratioP2;P2;SDS_P1;SDS_P2;PMS_P1;PMS_P2;Temp;Humidity;BMP_temperature;BMP_pressure;BME280_temperature;BME280_humidity;BME280_pressure;Samples;Min_cycle;Max_cycle;Signal;HPM_P1;HPM_P2
2021/04/08 00:00:10;;;;;;;42.45;23.00;;;205.20;1433.60;;;;;;4977571;28;20496;-69
2021/04/08 00:02:41;;;;;;;42.45;23.05;;;205.40;1433.60;;;;;;4984884;28;20022;-71
2021/04/08 00:05:08;;;;;;;27.77;17.65;;;205.50;1433.60;;;;;;4985723;28;20377;-68
2021/04/08 00:07:33;;;;;;;31.77;19.25;;;205.30;1433.60;;;;;;4978883;28;20061;-70
2021/04/08 00:09:59;;;;;;;36.55;24.27;;;205.30;1433.60;;;;;;4980266;28;20081;-72
2021/04/08 00:12:25;;;;;;;34.22;20.83;;;205.20;1459.20;;;;;;4985157;28;20544;-68
2021/04/08 00:14:50;;;;;;;33.55;20.75;;;205.20;1459.20;;;;;;4982657;28;20030;-67
2021/04/08 00:17:16;;;;;;;36.60;21.73;;;205.30;1433.60;;;;;;4977008;28;20046;-67
2021/04/08 00:19:42;;;;;;;37.20;20.30;;;205.40;1433.60;;;;;;4984109;28;20027;-68
2021/04/08 00:22:07;;;;;;;32.47;19.80;;;205.40;1433.60;;;;;;4985247;28;20444;-68
2021/04/08 00:24:33;;;;;;;30.92;18.88;;;205.50;1433.60;;;;;;4978558;28;20082;-69
2021/04/08 00:26:59;;;;;;;33.63;18.30;;;205.30;1433.60;;;;;;4980055;28;20114;-68
2021/04/08 00:29:24;;;;;;;27.83;15.73;;;205.30;1433.60;;;;;;4985195;28;20414;-68
2021/04/08 00:31:50;;;;;;;26.70;15.38;;;205.20;1433.60;;;;;;4956045;28;20084;-69
2021/04/08 00:34:16;;;;;;;23.52;14.68;;;205.30;1433.60;;;;;;4985124;28;20038;-69
2021/04/08 00:36:41;;;;;;;26.35;16.17;;;205.40;1433.60;;;;;;4978903;28;20038;-69
2021/04/08 00:39:07;;;;;;;29.08;18.23;;;205.40;1408.00;;;;;;4978204;28;20037;-70
2021/04/08 00:41:33;;;;;;;27.40;15.63;;;205.50;1408.00;;;;;;4985056;28;20026;-69
2021/04/08 00:43:59;;;;;;;26.27;14.27;;;205.50;1408.00;;;;;;4973479;28;20509;-69
2021/04/08 00:46:25;;;;;;;22.08;14.10;;;205.50;1408.00;;;;;;4973659;28;20109;-69
2021/04/08 00:48:51;;;;;;;23.30;14.60;;;205.50;1382.40;;;;;;4973154;28;20050;-70
2021/04/08 00:51:17;;;;;;;21.90;13.05;;;205.50;1382.40;;;;;;4973453;28;20034;-69
2021/04/08 00:53:43;;;;;;;23.25;14.02;;;205.30;1382.40;;;;;;4973286;28;20492;-70
2021/04/08 00:56:09;;;;;;;28.45;16.67;;;205.30;1382.40;;;;;;4973390;28;20027;-71
2021/04/08 00:58:36;;;;;;;23.33;13.00;;;205.10;1408.00;;;;;;4973027;28;20492;-70
2021/04/08 01:01:02;;;;;;;20.65;12.50;;;;;;;;;;4973301;28;20033;-70
2021/04/08 01:03:29;;;;;;;20.42;12.70;;;179.50;1561.60;;;;;;4973291;28;20026;-70
2021/04/08 01:05:55;;;;;;;17.88;11.85;;;179.40;1612.80;;;;;;4973204;28;20011;-71
2021/04/08 01:08:21;;;;;;;19.60;11.55;;;179.50;1587.20;;;;;;4975276;28;20082;-70
2021/04/08 01:10:46;;;;;;;20.90;11.98;;;179.80;1536.00;;;;;;4976730;28;20034;-72
2021/04/08 01:13:16;;;;;;;18.02;11.60;;;179.80;1510.40;;;;;;4976765;28;20425;-72
2021/04/08 01:15:42;;;;;;;22.85;13.23;;;180.00;1484.80;;;;;;4976767;28;20101;-71
2021/04/08 01:18:27;;;;;;;21.33;13.52;;;179.70;1536.00;;;;;;4976511;28;20035;-72
2021/04/08 01:21:10;;;;;;;20.17;12.98;;;179.90;1510.40;;;;;;4976521;28;20099;-74
2021/04/08 01:24:14;;;;;;;22.13;13.63;;;179.50;1536.00;;;;;;4976770;28;20026;-69
2021/04/08 01:26:52;;;;;;;23.45;13.55;;;179.80;1510.40;;;;;;4967551;28;20037;-69
2021/04/08 01:29:35;;;;;;;18.90;13.05;;;179.90;1484.80;;;;;;4979902;28;20106;-69
2021/04/08 01:32:04;;;;;;;25.67;14.18;;;179.90;1459.20;;;;;;4976295;28;20026;-69
2021/04/08 01:34:31;;;;;;;25.27;15.75;;;180.10;1459.20;;;;;;4976250;28;20027;-69
2021/04/08 01:37:03;;;;;;;22.60;14.10;;;180.10;1433.60;;;;;;4976282;28;20027;-71
2021/04/08 01:39:29;;;;;;;21.88;12.57;;;179.90;1459.20;;;;;;4976237;28;20062;-71
2021/04/08 01:41:57;;;;;;;16.33;11.18;;;180.10;1459.20;;;;;;4976019;28;20018;-72
2021/04/08 01:44:25;;;;;;;14.48;9.70;;;180.10;1433.60;;;;;;4976153;28;20055;-72
2021/04/08 01:47:03;;;;;;;12.75;8.23;;;204.80;1433.60;;;;;;4975851;28;20102;-72
2021/04/08 01:49:34;;;;;;;15.18;9.07;;;204.80;1408.00;;;;;;4975535;28;20098;-70
2021/04/08 01:52:00;;;;;;;9.38;7.07;;;204.80;1433.60;;;;;;4976047;28;20034;-70
2021/04/08 01:54:32;;;;;;;12.23;7.68;;;204.90;1408.00;;;;;;4976023;28;20143;-70
2021/04/08 01:57:02;;;;;;;11.27;7.13;;;204.90;1408.00;;;;;;4972150;28;20366;-70
2021/04/08 01:59:28;;;;;;;9.77;7.03;;;204.80;1408.00;;;;;;4975746;28;20105;-70
2021/04/08 02:01:57;;;;;;;12.88;8.20;;;179.90;1459.20;;;;;;4975642;28;20051;-70
2021/04/08 02:04:25;;;;;;;24.90;9.68;;;179.90;1459.20;;;;;;4965746;28;20034;-71
2021/04/08 02:06:51;;;;;;;15.63;10.48;;;179.90;1459.20;;;;;;4994051;28;20106;-70
2021/04/08 02:09:19;;;;;;;14.82;9.02;;;179.90;1459.20;;;;;;4975947;28;20151;-68
2021/04/08 02:11:48;;;;;;;16.13;8.77;;;180.00;1433.60;;;;;;4975748;28;20023;-68
2021/04/08 02:14:15;;;;;;;11.07;7.93;;;180.10;1433.60;;;;;;4975470;28;20022;-68
2021/04/08 02:16:50;;;;;;;17.70;8.73;;;179.90;1459.20;;;;;;4975619;28;20472;-69
2021/04/08 02:19:19;;;;;;;18.42;10.98;;;179.90;1459.20;;;;;;4974178;28;20039;-68
2021/04/08 02:21:46;;;;;;;14.38;9.10;;;179.90;1433.60;;;;;;4975495;28;20438;-68
2021/04/08 02:24:15;;;;;;;15.05;9.60;;;180.00;1433.60;;;;;;4975342;28;20122;-69
2021/04/08 02:26:45;;;;;;;15.30;9.65;;;179.90;1459.20;;;;;;4975564;28;20470;-68
2021/04/08 02:29:11;;;;;;;15.55;9.65;;;179.90;1459.20;;;;;;4975266;28;20105;-67
2021/04/08 02:31:39;;;;;;;16.25;10.07;;;179.90;1459.20;;;;;;4975248;28;20033;-67
2021/04/08 02:34:06;;;;;;;14.20;9.68;;;180.00;1459.20;;;;;;4975343;28;20019;-72
2021/04/08 02:36:32;;;;;;;18.33;10.10;;;179.80;1459.20;;;;;;4975148;28;20102;-73
2021/04/08 02:38:58;;;;;;;16.90;9.68;;;179.90;1459.20;;;;;;4975132;28;20537;-72
2021/04/08 02:41:25;;;;;;;18.27;11.43;;;179.90;1459.20;;;;;;4957543;28;20081;-69
2021/04/08 02:43:51;;;;;;;19.48;11.23;;;179.90;1459.20;;;;;;4975055;28;20034;-69
2021/04/08 02:46:16;;;;;;;21.08;12.68;;;179.90;1433.60;;;;;;4975091;28;20023;-70
2021/04/08 02:48:42;;;;;;;21.63;13.15;;;179.90;1459.20;;;;;;4974403;28;20181;-70
2021/04/08 02:51:26;;;;;;;44.78;20.58;;;180.00;1433.60;;;;;;4974996;28;20490;-70
2021/04/08 02:54:30;;;;;;;23.85;15.27;;;180.10;1433.60;;;;;;4974694;28;20050;-71
2021/04/08 02:56:58;;;;;;;26.67;16.13;;;180.00;1433.60;;;;;;4974492;28;20023;-71
2021/04/08 02:59:29;;;;;;;25.40;15.10;;;180.00;1433.60;;;;;;4974750;28;20508;-72
2021/04/08 03:02:13;;;;;;;21.83;13.77;;;180.00;1433.60;;;;;;4974608;28;20065;-71
2021/04/08 03:04:44;;;;;;;22.13;11.40;;;180.10;1408.00;;;;;;4974535;28;20031;-71
2021/04/08 03:07:12;;;;;;;25.50;14.10;;;180.00;1408.00;;;;;;4974620;28;20030;-71
2021/04/08 03:09:40;;;;;;;26.73;15.43;;;179.90;1433.60;;;;;;4974629;28;20035;-71
2021/04/08 03:12:09;;;;;;;30.88;17.95;;;180.00;1433.60;;;;;;4974451;28;20023;-71
2021/04/08 03:14:42;;;;;;;55.63;22.60;;;179.80;1484.80;;;;;;4974575;28;20031;-70
2021/04/08 03:17:09;;;;;;;31.60;18.30;;;179.70;1484.80;;;;;;4973877;28;20489;-71
2021/04/08 03:19:37;;;;;;;27.33;17.08;;;179.60;1484.80;;;;;;4974400;28;20378;-70
2021/04/08 03:22:05;;;;;;;28.33;16.58;;;179.70;1484.80;;;;;;4974346;28;20023;-70
2021/04/08 03:24:32;;;;;;;32.22;15.05;;;179.70;1484.80;;;;;;4974232;28;20050;-71
2021/04/08 03:26:58;;;;;;;29.33;16.05;;;179.70;1484.80;;;;;;4974222;28;20066;-71
2021/04/08 03:29:24;;;;;;;29.10;16.35;;;179.60;1484.80;;;;;;4974620;28;20018;-71
2021/04/08 03:31:51;;;;;;;32.85;16.05;;;179.60;1484.80;;;;;;4973988;28;20027;-71
2021/04/08 03:34:17;;;;;;;26.15;16.05;;;179.50;1510.40;;;;;;4974049;28;20030;-71
2021/04/08 03:36:43;;;;;;;29.90;17.42;;;179.60;1510.40;;;;;;4960220;28;20027;-71
2021/04/08 03:39:10;;;;;;;27.98;17.38;;;179.40;1510.40;;;;;;4973960;28;20042;-70
2021/04/08 03:41:38;;;;;;;30.77;16.73;;;179.40;1536.00;;;;;;4973853;28;20504;-71
2021/04/08 03:44:08;;;;;;;25.65;16.08;;;179.40;1510.40;;;;;;4974047;28;20023;-71
2021/04/08 03:46:38;;;;;;;35.97;16.67;;;179.30;1510.40;;;;;;4987412;28;20022;-68
2021/04/08 03:49:06;;;;;;;39.92;19.00;;;179.40;1510.40;;;;;;4973472;28;20512;-68
2021/04/08 03:51:34;;;;;;;44.63;22.25;;;179.40;1510.40;;;;;;4975222;28;20074;-68
2021/04/08 03:54:04;;;;;;;27.67;15.98;;;179.50;1510.40;;;;;;4979509;28;20097;-69
2021/04/08 03:56:32;;;;;;;32.60;19.38;;;179.40;1510.40;;;;;;4979172;28;20054;-69
2021/04/08 03:58:58;;;;;;;29.40;18.77;;;179.30;1510.40;;;;;;4985306;28;20477;-68
2021/04/08 04:01:24;;;;;;;57.47;35.72;;;179.40;1510.40;;;;;;4983796;28;20019;-68
2021/04/08 04:03:51;;;;;;;78.93;49.88;;;179.50;1510.40;;;;;;4977171;28;20085;-68
2021/04/08 04:06:18;;;;;;;77.13;43.10;;;179.40;1510.40;;;;;;4982589;28;20034;-68
2021/04/08 04:08:44;;;;;;;51.53;33.85;;;179.40;1510.40;;;;;;4985125;28;20051;-67
2021/04/08 04:11:13;;;;;;;47.47;29.38;;;179.40;1510.40;;;;;;4980373;28;20034;-68
2021/04/08 04:13:40;;;;;;;52.97;30.33;;;179.40;1484.80;;;;;;4977927;28;20038;-68
2021/04/08 04:16:07;;;;;;;48.20;30.48;;;179.50;1484.80;;;;;;4984972;28;20019;-68
2021/04/08 04:18:33;;;;;;;41.72;29.52;;;179.40;1459.20;;;;;;4984656;28;20042;-68
2021/04/08 04:21:00;;;;;;;61.40;38.63;;;179.50;1459.20;;;;;;4977053;28;20508;-68
2021/04/08 04:23:25;;;;;;;63.13;43.55;;;179.60;1459.20;;;;;;4981345;28;20042;-68
2021/04/08 04:25:52;;;;;;;52.20;36.75;;;179.50;1459.20;;;;;;4985100;28;20023;-68
2021/04/08 04:28:18;;;;;;;87.15;57.38;;;179.50;1459.20;;;;;;4958087;28;20135;-68
2021/04/08 04:30:43;;;;;;;89.47;59.38;;;179.50;1459.20;;;;;;4984790;28;20093;-69
2021/04/08 04:33:09;;;;;;;99.28;63.00;;;179.50;1484.80;;;;;;4979169;28;20483;-68
2021/04/08 04:35:35;;;;;;;107.90;64.60;;;179.50;1484.80;;;;;;4979085;28;20035;-69
2021/04/08 04:38:00;;;;;;;96.72;58.90;;;179.50;1484.80;;;;;;4977151;28;20034;-69
2021/04/08 04:40:26;;;;;;;97.07;57.40;;;179.50;1484.80;;;;;;4980988;28;20533;-69
2021/04/08 04:42:52;;;;;;;81.65;50.97;;;179.50;1459.20;;;;;;4962323;28;20039;-69
2021/04/08 04:45:18;;;;;;;110.63;68.22;;;179.50;1484.80;;;;;;4977021;28;20061;-70
2021/04/08 04:47:44;;;;;;;111.55;66.70;;;179.40;1484.80;;;;;;4976888;28;20039;-69
2021/04/08 04:50:13;;;;;;;128.68;75.88;;;179.50;1484.80;;;;;;4976935;28;20030;-70
2021/04/08 04:52:39;;;;;;;135.45;85.65;;;179.60;1484.80;;;;;;4976914;28;20078;-70
2021/04/08 04:55:06;;;;;;;137.35;88.60;;;179.60;1484.80;;;;;;4976914;28;20023;-69
2021/04/08 04:57:32;;;;;;;134.88;74.38;;;179.60;1459.20;;;;;;4976784;28;20089;-69
2021/04/08 04:59:57;;;;;;;118.00;68.88;;;179.60;1459.20;;;;;;4976903;28;20062;-71
2021/04/08 05:02:23;;;;;;;101.68;60.88;;;179.70;1459.20;;;;;;4976748;28;20106;-71
2021/04/08 05:04:49;;;;;;;94.93;53.58;;;179.60;1484.80;;;;;;4976692;28;20026;-71
2021/04/08 05:07:15;;;;;;;100.63;56.95;;;179.50;1484.80;;;;;;4976707;28;20022;-71
2021/04/08 05:09:41;;;;;;;90.82;50.42;;;179.80;1459.20;;;;;;4976760;28;20103;-71
2021/04/08 05:12:07;;;;;;;95.75;53.53;;;179.70;1459.20;;;;;;4990328;28;20045;-71
2021/04/08 05:14:33;;;;;;;90.60;54.58;;;179.70;1459.20;;;;;;4976772;28;20027;-71
2021/04/08 05:16:59;;;;;;;88.45;51.70;;;179.70;1459.20;;;;;;4976395;28;20220;-71
2021/04/08 05:19:26;;;;;;;90.32;48.78;;;179.50;1459.20;;;;;;4981099;28;20039;-72
2021/04/08 05:21:52;;;;;;;84.13;46.67;;;179.80;1459.20;;;;;;4985314;28;20027;-72
2021/04/08 05:24:18;;;;;;;85.20;46.90;;;179.70;1459.20;;;;;;4992697;28;20112;-71
2021/04/08 05:26:45;;;;;;;85.32;46.08;;;179.70;1459.20;;;;;;4977816;28;20015;-70
2021/04/08 05:29:11;;;;;;;84.97;53.15;;;179.70;1459.20;;;;;;4977611;28;20437;-71
2021/04/08 05:31:37;;;;;;;73.72;40.15;;;179.90;1433.60;;;;;;4979345;28;20030;-70
2021/04/08 05:34:02;;;;;;;75.47;38.60;;;179.80;1433.60;;;;;;4976205;28;20033;-70
2021/04/08 05:36:28;;;;;;;56.85;32.08;;;179.90;1408.00;;;;;;4980800;28;20389;-70
2021/04/08 05:38:54;;;;;;;59.63;31.23;;;179.70;1408.00;;;;;;4976223;28;20046;-70
2021/04/08 05:41:19;;;;;;;50.45;28.25;;;179.80;1433.60;;;;;;4980701;28;20054;-71
2021/04/08 05:43:45;;;;;;;50.47;28.83;;;180.00;1382.40;;;;;;4976089;28;20023;-68
2021/04/08 05:46:12;;;;;;;51.28;32.20;;;180.10;1382.40;;;;;;4976038;28;20023;-69
2021/04/08 05:48:39;;;;;;;51.03;29.90;;;180.10;1382.40;;;;;;4975373;28;20058;-69
2021/04/08 05:51:05;;;;;;;53.63;29.58;;;180.10;1356.80;;;;;;4975927;28;20433;-69
2021/04/08 05:53:31;;;;;;;48.05;27.77;;;204.90;1331.20;;;;;;4977167;28;20050;-70
2021/04/08 05:55:57;;;;;;;46.58;26.00;;;;;;;;;;4988122;28;20461;-72
2021/04/08 05:58:23;;;;;;;45.50;25.70;;;205.10;1305.60;;;;;;4989185;28;20512;-70
2021/04/08 06:00:49;;;;;;;38.88;23.88;;;205.10;1280.00;;;;;;4975919;28;20046;-71
2021/04/08 06:03:14;;;;;;;38.45;25.23;;;205.20;1305.60;;;;;;4975690;28;20094;-71
2021/04/08 06:05:40;;;;;;;31.85;19.90;;;205.00;1305.60;;;;;;4975613;28;20023;-70
2021/04/08 06:08:07;;;;;;;34.35;19.70;;;205.10;1280.00;;;;;;4975715;28;20026;-69
2021/04/08 06:10:33;;;;;;;31.38;18.15;;;205.20;1280.00;;;;;;4975616;28;20030;-69
2021/04/08 06:12:59;;;;;;;39.75;19.17;;;205.20;1228.80;;;;;;4983452;28;20085;-68
2021/04/08 06:15:25;;;;;;;15.07;10.05;;;205.30;1228.80;;;;;;4981548;28;20031;-69
2021/04/08 06:17:51;;;;;;;19.20;10.20;;;;;;;;;;4975261;28;20023;-69
2021/04/08 06:20:17;;;;;;;24.70;12.77;;;205.70;1203.20;;;;;;4975343;28;20122;-70
2021/04/08 06:22:43;;;;;;;16.95;10.40;;;230.50;1203.20;;;;;;4975277;28;20475;-70
2021/04/08 06:25:09;;;;;;;22.75;11.15;;;230.60;1177.60;;;;;;4985157;28;20022;-69
2021/04/08 06:27:35;;;;;;;22.75;13.00;;;230.70;1152.00;;;;;;4979021;28;20105;-68
2021/04/08 06:30:04;;;;;;;24.95;14.55;;;230.50;1177.60;;;;;;4975314;28;20026;-69
2021/04/08 06:32:30;;;;;;;18.33;9.70;;;230.50;1177.60;;;;;;4974993;28;20019;-68
2021/04/08 06:34:56;;;;;;;14.70;9.15;;;230.70;1152.00;;;;;;4975107;28;20034;-68
2021/04/08 06:37:21;;;;;;;13.07;8.38;;;230.90;1126.40;;;;;;4975001;28;20031;-69
2021/04/08 06:39:48;;;;;;;14.75;7.72;;;231.00;1126.40;;;;;;4974920;28;20098;-70
2021/04/08 06:42:20;;;;;;;22.00;8.35;;;230.90;1075.20;;;;;;4974909;28;20010;-71
2021/04/08 06:44:50;;;;;;;;;;;230.90;1100.80;;;;;;4975510;28;20477;-70
2021/04/08 06:47:24;;;;;;;14.43;8.00;;;231.20;1049.60;;;;;;4974654;28;19906;-71
2021/04/08 06:49:53;;;;;;;15.57;7.97;;;230.80;1049.60;;;;;;4969730;28;20712;-72
2021/04/08 06:52:20;;;;;;;20.80;11.75;;;230.90;1049.60;;;;;;4983724;28;20034;-72
2021/04/08 06:54:47;;;;;;;13.18;8.45;;;230.80;1100.80;;;;;;4975085;28;20175;-69
2021/04/08 06:57:17;;;;;;;16.65;9.10;;;231.20;1049.60;;;;;;4979092;28;20033;-70
2021/04/08 06:59:44;;;;;;;24.20;13.48;;;231.00;1075.20;;;;;;4974701;28;20520;-71
2021/04/08 07:02:13;;;;;;;18.75;11.13;;;;;;;;;;4977140;28;20038;-71
2021/04/08 07:04:39;;;;;;;13.23;7.28;;;256.70;998.40;;;;;;4975511;28;20030;-71
2021/04/08 07:07:05;;;;;;;15.40;6.53;;;256.80;998.40;;;;;;4978503;28;20031;-70
2021/04/08 07:09:31;;;;;;;13.65;7.25;;;;;;;;;;4978942;28;20034;-70
2021/04/08 07:12:00;;;;;;;14.77;7.40;;;;;;;;;;4979132;28;20073;-71
2021/04/08 07:14:26;;;;;;;17.05;7.78;;;;;;;;;;4978537;28;20034;-70
2021/04/08 07:16:52;;;;;;;18.77;9.15;;;;;;;;;;4974277;28;20054;-69
2021/04/08 07:19:19;;;;;;;20.38;8.48;;;;;;;;;;4982190;28;20382;-70
2021/04/08 07:21:44;;;;;;;24.48;10.80;;;281.70;998.40;;;;;;4974722;28;20537;-70
2021/04/08 07:24:23;;;;;;;12.38;7.32;;;281.70;998.40;;;;;;4978663;28;20086;-69
2021/04/08 07:26:53;;;;;;;10.02;5.65;;;;;;;;;;4978830;28;20120;-72
2021/04/08 07:29:20;;;;;;;16.23;8.23;;;;;;;;;;4976306;28;20027;-71
2021/04/08 07:31:46;;;;;;;17.83;10.18;;;;;;;;;;4984348;28;20037;-72
2021/04/08 07:34:13;;;;;;;38.95;10.45;;;;;;;;;;4979421;28;20027;-70
2021/04/08 07:36:40;;;;;;;23.10;6.72;;;281.90;972.80;;;;;;4977557;28;20037;-71
2021/04/08 07:39:06;;;;;;;21.23;6.18;;;281.90;947.20;;;;;;4972706;28;20041;-70
2021/04/08 07:41:34;;;;;;;36.08;13.52;;;282.10;947.20;;;;;;4973741;28;20039;-71
2021/04/08 07:44:10;;;;;;;15.50;7.90;;;282.40;921.60;;;;;;4973877;28;20015;-70
2021/04/08 07:46:37;;;;;;;18.38;8.63;;;282.50;921.60;;;;;;4973737;28;20026;-71
2021/04/08 07:49:32;;;;;;;11.55;6.03;;;282.20;972.80;;;;;;4973597;28;20081;-71
2021/04/08 07:52:28;;;;;;;12.82;5.30;;;282.50;921.60;;;;;;4973736;28;20504;-69
2021/04/08 07:55:00;;;;;;;14.15;6.65;;;307.50;921.60;;;;;;4969626;28;20045;-69
2021/04/08 07:57:26;;;;;;;;;;;307.50;947.20;;;;;;4973989;28;20557;-69
2021/04/08 07:59:52;;;;;;;24.80;10.27;;;307.30;947.20;;;;;;4973660;28;19960;-69
2021/04/08 08:02:23;;;;;;;22.95;8.90;;;307.80;947.20;;;;;;4973539;28;20082;-70
2021/04/08 08:04:49;;;;;;;;;;;332.80;921.60;;;;;;4973947;28;20023;-71
2021/04/08 08:07:28;;;;;;;13.23;6.40;;;332.90;921.60;;;;;;4973237;28;20540;-71
2021/04/08 08:09:59;;;;;;;18.55;8.00;;;307.70;947.20;;;;;;4973558;28;20386;-72
2021/04/08 08:12:31;;;;;;;14.30;9.63;;;308.10;921.60;;;;;;4973526;28;20421;-71
2021/04/08 08:15:13;;;;;;;13.60;8.02;;;307.90;896.00;;;;;;4973519;28;20151;-72
2021/04/08 08:17:39;;;;;;;12.70;8.82;;;307.70;896.00;;;;;;4972550;28;20034;-69
2021/04/08 08:20:05;;;;;;;13.85;7.60;;;307.30;921.60;;;;;;4983232;28;20043;-69
2021/04/08 08:22:35;;;;;;;10.65;5.28;;;308.00;896.00;;;;;;4976422;28;20109;-70
2021/04/08 08:25:01;;;;;;;15.45;7.30;;;308.10;870.40;;;;;;4955499;28;20034;-70
2021/04/08 08:27:49;;;;;;;19.98;8.23;;;332.90;870.40;;;;;;4973264;28;20034;-70
2021/04/08 08:30:22;;;;;;;12.27;7.63;;;333.10;844.80;;;;;;4973264;28;20026;-71
2021/04/08 08:33:07;;;;;;;23.10;10.02;;;333.10;819.20;;;;;;4973256;28;20473;-70
2021/04/08 08:35:33;;;;;;;17.17;9.27;;;333.20;844.80;;;;;;4984556;28;20030;-70
2021/04/08 08:38:18;;;;;;;11.48;5.95;;;333.00;844.80;;;;;;4991822;28;20125;-71
2021/04/08 08:40:45;;;;;;;17.33;5.63;;;333.00;819.20;;;;;;4980304;28;20482;-71
2021/04/08 08:43:12;;;;;;;11.45;5.97;;;333.30;768.00;;;;;;4990435;28;20039;-71
2021/04/08 08:45:39;;;;;;;13.38;5.53;;;333.50;793.60;;;;;;4973177;28;20022;-71
2021/04/08 08:48:10;;;;;;;9.65;5.35;;;333.00;742.40;;;;;;4968525;28;20082;-71
2021/04/08 08:50:38;;;;;;;12.38;6.60;;;332.90;819.20;;;;;;4957874;28;20033;-71
2021/04/08 08:53:05;;;;;;;11.63;6.82;;;308.10;819.20;;;;;;4952194;28;20027;-71
2021/04/08 08:55:31;;;;;;;6.68;4.50;;;332.90;844.80;;;;;;4951302;28;20015;-71
2021/04/08 08:58:02;;;;;;;11.77;7.70;;;332.80;870.40;;;;;;4952738;28;20051;-78
2021/04/08 09:00:29;;;;;;;10.68;5.93;;;333.20;870.40;;;;;;4950380;28;20046;-72
2021/04/08 09:02:57;;;;;;;20.98;9.40;;;332.90;844.80;;;;;;4950858;28;20026;-69
2021/04/08 09:05:27;;;;;;;7.68;4.18;;;333.40;742.40;;;;;;4949608;28;20035;-72
2021/04/08 09:07:56;;;;;;;12.98;7.28;;;358.40;716.80;;;;;;4951152;28;20077;-70
2021/04/08 09:10:32;;;;;;;14.65;7.53;;;358.70;691.20;;;;;;4951183;28;20027;-69
2021/04/08 09:12:58;;;;;;;6.65;4.20;;;358.90;665.60;;;;;;4949841;28;20102;-71
2021/04/08 09:15:25;;;;;;;12.95;4.45;;;359.30;665.60;;;;;;4952356;28;20138;-70
2021/04/08 09:18:03;;;;;;;12.13;4.05;;;384.20;665.60;;;;;;4951703;28;20035;-70
2021/04/08 09:20:29;;;;;;;16.65;7.35;;;384.00;640.00;;;;;;4953104;28;20045;-71
2021/04/08 09:23:03;;;;;;;12.68;7.38;;;384.40;640.00;;;;;;4948323;28;20098;-69
2021/04/08 09:25:38;;;;;;;14.30;6.00;;;384.40;640.00;;;;;;4951057;28;20038;-70
2021/04/08 09:28:11;;;;;;;9.13;4.70;;;359.20;665.60;;;;;;4950298;28;20489;-69
2021/04/08 09:30:50;;;;;;;7.90;5.13;;;358.90;665.60;;;;;;4954781;28;20049;-72
2021/04/08 09:33:16;;;;;;;9.63;5.05;;;359.00;665.60;;;;;;4954766;28;20061;-69
2021/04/08 09:35:43;;;;;;;14.02;8.70;;;384.30;614.40;;;;;;4955451;28;20026;-69
2021/04/08 09:38:09;;;;;;;13.50;9.77;;;384.80;640.00;;;;;;4942914;28;20063;-69
2021/04/08 09:40:42;;;;;;;20.25;18.08;;;410.10;640.00;;;;;;4944321;29;20060;-68
2021/04/08 09:43:17;;;;;;;15.50;8.30;;;512.50;460.80;;;;;;4952864;28;20111;-69
2021/04/08 09:45:44;;;;;;;28.83;22.40;;;;;;;;;;4956668;28;20019;-69
2021/04/08 09:48:10;;;;;;;7.35;5.50;;;;;;;;;;4961397;28;20122;-69
2021/04/08 09:50:45;;;;;;;31.27;12.25;;;;;;;;;;4975681;28;20086;-71
2021/04/08 09:53:13;;;;;;;12.15;10.50;;;819.50;230.40;;;;;;4975829;28;20029;-70
2021/04/08 09:55:41;;;;;;;16.95;9.45;;;;;;;;;;4963431;28;20046;-70
2021/04/08 09:58:07;;;;;;;11.50;10.20;;;;;;;;;;4984094;28;20026;-68
2021/04/08 10:00:34;;;;;;;22.70;18.20;;;716.90;256.00;;;;;;4978915;28;20077;-70
2021/04/08 10:03:02;;;;;;;27.83;24.92;;;640.10;332.80;;;;;;4985745;28;20033;-69
2021/04/08 10:05:32;;;;;;;15.98;12.48;;;589.10;435.20;;;;;;4989043;28;20073;-69
2021/04/08 10:07:59;;;;;;;14.50;9.47;;;665.80;358.40;;;;;;4984123;28;20025;-68
2021/04/08 10:10:37;;;;;;;14.07;8.90;;;;;;;;;;5120013;23;20055;-71
2021/04/08 10:13:21;;;;;;;19.75;16.52;;;666.50;307.20;;;;;;4983315;28;20052;-69
2021/04/08 10:15:49;;;;;;;21.65;15.40;;;615.00;384.00;;;;;;4988444;28;20545;-71
2021/04/08 10:18:20;;;;;;;23.73;10.35;;;614.50;384.00;;;;;;4993259;28;20034;-68
2021/04/08 10:20:47;;;;;;;14.95;10.45;;;;;;;;;;4974861;28;20030;-68
2021/04/08 10:23:14;;;;;;;8.55;5.43;;;563.60;409.60;;;;;;4975527;28;20026;-69
2021/04/08 10:25:41;;;;;;;10.02;7.45;;;512.80;435.20;;;;;;4980437;28;20453;-68
2021/04/08 10:28:07;;;;;;;28.48;12.35;;;588.90;435.20;;;;;;4975173;28;20030;-68
2021/04/08 10:30:38;;;;;;;18.85;9.20;;;589.70;409.60;;;;;;4974816;28;20109;-70
2021/04/08 10:33:24;;;;;;;12.38;7.88;;;614.70;409.60;;;;;;4966414;28;20030;-70
2021/04/08 10:35:49;;;;;;;12.02;7.18;;;614.60;409.60;;;;;;4967631;28;20039;-71
2021/04/08 10:38:16;;;;;;;10.27;7.03;;;;;;;;;;4967895;28;20090;-70
2021/04/08 10:40:51;;;;;;;17.23;11.68;;;691.30;281.60;;;;;;4974002;28;20114;-71
2021/04/08 10:43:18;;;;;;;14.20;9.80;;;;;;;;;;4974223;28;20089;-69
2021/04/08 10:45:54;;;;;;;19.63;12.13;;;;;;;;;;4974646;28;20035;-71
2021/04/08 10:48:21;;;;;;;18.38;14.82;;;640.90;307.20;;;;;;4974253;28;20101;-69
2021/04/08 10:50:47;;;;;;;79.60;64.75;;;;;;;;;;4974246;28;20050;-70
2021/04/08 10:53:17;;;;;;;36.10;32.33;;;691.40;281.60;;;;;;4974161;28;20027;-71
2021/04/08 10:55:43;;;;;;;6.25;4.47;;;692.10;256.00;;;;;;4973891;28;20019;-70
2021/04/08 10:58:25;;;;;;;16.45;9.13;;;691.70;281.60;;;;;;4974483;28;20069;-72
2021/04/08 11:00:52;;;;;;;11.15;8.18;;;717.20;307.20;;;;;;4974467;28;20496;-71
2021/04/08 11:03:18;;;;;;;19.23;13.15;;;640.00;332.80;;;;;;4974422;28;20027;-69
2021/04/08 11:05:44;;;;;;;8.10;5.93;;;589.60;384.00;;;;;;4974046;28;20022;-68
2021/04/08 11:08:11;;;;;;;26.15;19.63;;;538.40;435.20;;;;;;4974170;28;20397;-71
2021/04/08 11:10:37;;;;;;;15.27;10.63;;;;;;;;;;4975652;28;20062;-69
2021/04/08 11:13:03;;;;;;;17.63;7.93;;;563.30;435.20;;;;;;4988200;28;20035;-69
2021/04/08 11:15:30;;;;;;;13.02;6.18;;;;;;;;;;4967878;28;20098;-71
2021/04/08 11:18:06;;;;;;;14.70;12.55;;;;;;;;;;4972420;28;20102;-68
2021/04/08 11:20:33;;;;;;;32.83;23.30;;;;;;;;;;4987569;28;20370;-68
2021/04/08 11:23:00;;;;;;;9.73;7.78;;;;;;;;;;4984878;28;20019;-72
2021/04/08 11:25:26;;;;;;;10.15;7.15;;;;;;;;;;4965688;28;20153;-72
2021/04/08 11:27:55;;;;;;;13.50;8.15;;;564.10;409.60;;;;;;4961053;28;20038;-70
2021/04/08 11:30:26;;;;;;;33.95;14.10;;;589.20;435.20;;;;;;4944841;28;20078;-70
2021/04/08 11:32:53;;;;;;;30.35;18.27;;;;;;;;;;4962086;28;20110;-72
2021/04/08 11:35:23;;;;;;;22.63;13.80;;;;;;;;;;4961539;28;20110;-70
2021/04/08 11:37:50;;;;;;;50.83;39.40;;;;;;;;;;4963353;28;20019;-72
2021/04/08 11:40:21;;;;;;;35.13;29.20;;;538.20;435.20;;;;;;4960000;28;20486;-71
2021/04/08 11:42:47;;;;;;;39.03;26.23;;;512.50;460.80;;;;;;4980836;28;20026;-70
2021/04/08 11:45:33;;;;;;;23.67;16.10;;;512.20;460.80;;;;;;4993037;28;20023;-72
2021/04/08 11:48:06;;;;;;;18.88;9.60;;;;;;;;;;4992887;28;20040;-71
2021/04/08 11:50:42;;;;;;;14.95;10.65;;;486.40;537.60;;;;;;4992958;28;20034;-70
2021/04/08 11:53:10;;;;;;;21.42;12.25;;;461.30;537.60;;;;;;4992896;28;20030;-70
2021/04/08 11:55:37;;;;;;;34.17;30.45;;;435.90;563.20;;;;;;4992844;28;20018;-69
2021/04/08 11:58:03;;;;;;;71.10;63.28;;;;;;;;;;4992852;28;20030;-71
2021/04/08 12:00:29;;;;;;;41.95;33.03;;;409.90;614.40;;;;;;4992799;28;20022;-71
2021/04/08 12:02:55;;;;;;;49.75;36.50;;;410.20;614.40;;;;;;4992689;28;20026;-71
2021/04/08 12:05:21;;;;;;;23.48;14.70;;;410.00;640.00;;;;;;4992844;28;20469;-70
2021/04/08 12:07:49;;;;;;;32.45;22.30;;;410.00;640.00;;;;;;4992715;28;20470;-72
2021/04/08 12:10:26;;;;;;;24.13;13.20;;;410.00;640.00;;;;;;4992625;28;20078;-71
2021/04/08 12:13:05;;;;;;;60.22;49.90;;;384.90;640.00;;;;;;4967636;28;20093;-71
2021/04/08 12:15:48;;;;;;;37.35;31.20;;;384.90;640.00;;;;;;4992388;28;20058;-70
2021/04/08 12:18:25;;;;;;;25.52;16.73;;;;;;;;;;4992689;28;20033;-71
2021/04/08 12:20:52;;;;;;;33.03;15.93;;;409.70;665.60;;;;;;4982646;28;20058;-70
2021/04/08 12:23:35;;;;;;;27.45;18.42;;;409.90;665.60;;;;;;4973044;28;20078;-70
2021/04/08 12:26:01;;;;;;;25.30;18.27;;;410.10;640.00;;;;;;4976504;28;20366;-70
2021/04/08 12:28:27;;;;;;;15.95;12.65;;;410.10;640.00;;;;;;4992758;28;20592;-71